createdAt,value
2018-02-20T00:02:06.156Z,97885.91
2018-02-20T00:04:33.862Z,97883.18
2018-02-20T00:07:01.582Z,97877.04
2018-02-20T00:09:29.258Z,97877.35
2018-02-20T00:11:56.940Z,97877.03
2018-02-20T00:14:24.634Z,97874.92
2018-02-20T00:16:52.323Z,97873.69
2018-02-20T00:19:20.019Z,97868.80
2018-02-20T00:21:47.718Z,97871.05
2018-02-20T00:24:15.456Z,97864.07
2018-02-20T00:26:43.158Z,97868.45
2018-02-20T00:29:10.825Z,97865.13
2018-02-20T00:31:38.518Z,97867.37
2018-02-20T00:34:06.213Z,97864.44
2018-02-20T00:36:33.919Z,97861.78
2018-02-20T00:39:01.597Z,97861.63
2018-02-20T00:41:29.455Z,97858.47
2018-02-20T00:43:57.137Z,97862.02
2018-02-20T00:46:24.826Z,97856.46
2018-02-20T00:48:52.532Z,97858.84
2018-02-20T00:51:20.204Z,97857.16
2018-02-20T00:53:47.972Z,97852.50
2018-02-20T00:56:15.648Z,97858.73
2018-02-20T00:58:43.361Z,97856.05
2018-02-20T01:01:11.051Z,97860.58
2018-02-20T01:03:38.827Z,97860.58
2018-02-20T01:06:06.516Z,97863.76
2018-02-20T01:08:34.200Z,97858.73
2018-02-20T01:11:01.899Z,97859.77
2018-02-20T01:13:29.579Z,97864.41
2018-02-20T01:15:57.309Z,97869.17
2018-02-20T01:18:25.005Z,97868.28
2018-02-20T01:20:52.695Z,97864.65
2018-02-20T01:23:20.397Z,97871.84
2018-02-20T01:25:48.085Z,97867.50
2018-02-20T01:28:15.810Z,97875.70
2018-02-20T01:30:43.499Z,97873.56
2018-02-20T01:33:11.222Z,97875.20
2018-02-20T01:35:38.903Z,97869.38
2018-02-20T01:38:06.577Z,97866.80
2018-02-20T01:40:34.295Z,97869.61
2018-02-20T01:43:01.964Z,97864.28
2018-02-20T01:45:29.680Z,97866.20
2018-02-20T01:47:57.348Z,97865.64
2018-02-20T01:50:25.121Z,97865.52
2018-02-20T01:52:52.804Z,97862.47
2018-02-20T01:55:20.499Z,97866.33
2018-02-20T01:57:48.214Z,97860.36
2018-02-20T02:00:15.887Z,97859.02
2018-02-20T02:02:43.581Z,97861.45
2018-02-20T02:05:11.266Z,97860.00
2018-02-20T02:07:38.980Z,97857.41
2018-02-20T02:10:06.668Z,97861.52
2018-02-20T02:12:34.350Z,97860.72
2018-02-20T02:15:02.104Z,97853.73
2018-02-20T02:17:29.790Z,97858.66
2018-02-20T02:19:57.530Z,97848.64
2018-02-20T02:22:25.229Z,97849.36
2018-02-20T02:24:53.335Z,97848.66
2018-02-20T02:27:21.026Z,97842.52
2018-02-20T02:29:48.711Z,97835.56
2018-02-20T02:32:16.402Z,97841.02
2018-02-20T02:34:44.089Z,97835.11
2018-02-20T02:37:11.788Z,97843.03
2018-02-20T02:39:39.470Z,97836.58
2018-02-20T02:42:07.748Z,97837.47
2018-02-20T02:44:35.446Z,97839.82
2018-02-20T02:47:03.113Z,97836.55
2018-02-20T02:49:30.830Z,97832.50
2018-02-20T02:51:58.514Z,97833.37
2018-02-20T02:54:26.212Z,97833.70
2018-02-20T02:56:53.902Z,97832.52
2018-02-20T02:59:21.801Z,97829.44
2018-02-20T03:01:49.488Z,97832.49
2018-02-20T03:04:17.161Z,97827.86
2018-02-20T03:06:44.872Z,97833.09
2018-02-20T03:09:12.560Z,97831.58
2018-02-20T03:11:40.251Z,97835.71
2018-02-20T03:14:07.955Z,97834.82
2018-02-20T03:16:35.844Z,97827.22
2018-02-20T03:19:03.616Z,97824.94
2018-02-20T03:21:31.298Z,97832.50
2018-02-20T03:23:59.024Z,97826.44
2018-02-20T03:26:26.710Z,97829.13
2018-02-20T03:28:54.427Z,97828.88
2018-02-20T03:31:22.104Z,97833.61
2018-02-20T03:33:49.840Z,97823.95
2018-02-20T03:36:17.519Z,97826.69
2018-02-20T03:38:45.191Z,97824.74
2018-02-20T03:41:12.891Z,97825.11
2018-02-20T03:43:40.593Z,97826.62
2018-02-20T03:46:08.289Z,97829.73
2018-02-20T03:48:35.950Z,97824.98
2018-02-20T03:51:03.674Z,97831.52
2018-02-20T03:53:31.526Z,97828.47
2018-02-20T03:55:59.212Z,97830.98
2018-02-20T03:58:26.908Z,97828.05
2018-02-20T04:00:54.573Z,97833.72
2018-02-20T04:03:22.267Z,97834.19
2018-02-20T04:05:49.950Z,97831.89
2018-02-20T04:08:17.725Z,97842.52
2018-02-20T04:10:45.417Z,97841.60
2018-02-20T04:13:13.102Z,97844.20
2018-02-20T04:15:40.801Z,97842.14
2018-02-20T04:18:09.699Z,97843.03
2018-02-20T04:20:37.393Z,97836.92
2018-02-20T04:23:05.071Z,97835.77
2018-02-20T04:25:32.831Z,97827.81
2018-02-20T04:28:00.516Z,97832.61
2018-02-20T04:30:28.196Z,97834.69
2018-02-20T04:32:55.914Z,97834.08
2018-02-20T04:35:23.595Z,97835.92
2018-02-20T04:37:51.783Z,97837.73
2018-02-20T04:40:19.496Z,97832.28
2018-02-20T04:42:47.173Z,97831.63
2018-02-20T04:45:14.877Z,97830.60
2018-02-20T04:47:42.542Z,97833.52
2018-02-20T04:50:10.260Z,97824.19
2018-02-20T04:52:37.936Z,97832.53
2018-02-20T04:55:05.604Z,97835.77
2018-02-20T04:57:33.328Z,97830.16
2018-02-20T05:00:01.004Z,97832.14
2018-02-20T05:02:28.722Z,97828.48
2018-02-20T05:04:56.391Z,97833.45
2018-02-20T05:07:24.216Z,97827.95
2018-02-20T05:09:51.942Z,97830.42
2018-02-20T05:12:19.623Z,97824.72
2018-02-20T05:14:47.340Z,97829.59
2018-02-20T05:17:15.009Z,97818.76
2018-02-20T05:19:43.009Z,97821.23
2018-02-20T05:22:10.728Z,97822.63
2018-02-20T05:24:38.402Z,97818.34
2018-02-20T05:27:06.101Z,97813.17
2018-02-20T05:29:33.768Z,97813.04
2018-02-20T05:32:01.455Z,97816.50
2018-02-20T05:34:31.497Z,97816.73
2018-02-20T05:36:59.203Z,97817.39
2018-02-20T05:39:26.881Z,97820.33
2018-02-20T05:41:54.570Z,97821.69
2018-02-20T05:44:22.272Z,97823.19
2018-02-20T05:46:49.942Z,97824.58
2018-02-20T05:49:17.649Z,97823.70
2018-02-20T05:51:45.327Z,97818.05
2018-02-20T05:54:13.250Z,97820.78
2018-02-20T05:56:40.926Z,97826.48
2018-02-20T05:59:08.611Z,97825.12
2018-02-20T06:01:36.336Z,97830.25
2018-02-20T06:04:04.025Z,97832.84
2018-02-20T06:06:31.756Z,97833.20
2018-02-20T06:08:59.434Z,97838.31
2018-02-20T06:11:27.250Z,97839.42
2018-02-20T06:13:54.928Z,97836.69
2018-02-20T06:16:22.619Z,97837.08
2018-02-20T06:18:50.330Z,97839.34
2018-02-20T06:21:18.015Z,97843.89
2018-02-20T06:23:45.752Z,97845.47
2018-02-20T06:26:13.453Z,97843.23
2018-02-20T06:28:41.165Z,97842.00
2018-02-20T06:31:08.853Z,97845.83
2018-02-20T06:33:36.555Z,97843.48
2018-02-20T06:36:04.253Z,97845.34
2018-02-20T06:38:31.932Z,97842.66
2018-02-20T06:40:59.624Z,97851.96
2018-02-20T06:43:27.315Z,97846.89
2018-02-20T06:45:55.142Z,97843.04
2018-02-20T06:48:22.825Z,97843.80
2018-02-20T06:50:50.504Z,97840.89
2018-02-20T06:53:18.196Z,97846.80
2018-02-20T06:55:45.864Z,97845.32
2018-02-20T06:58:13.667Z,97847.08
2018-02-20T07:00:41.336Z,97845.84
2018-02-20T07:03:09.087Z,97849.89
2018-02-20T07:05:36.771Z,97856.32
2018-02-20T07:08:04.451Z,97853.91
2018-02-20T07:10:32.175Z,97856.97
2018-02-20T07:12:59.864Z,97857.95
2018-02-20T07:15:27.549Z,97856.78
2018-02-20T07:17:55.465Z,97852.43
2018-02-20T07:20:23.529Z,97857.96
2018-02-20T07:22:51.200Z,97857.47
2018-02-20T07:25:18.875Z,97861.58
2018-02-20T07:27:46.592Z,97859.53
2018-02-20T07:30:14.272Z,97854.81
2018-02-20T07:32:42.004Z,97856.41
2018-02-20T07:35:09.687Z,97853.29
2018-02-20T07:37:37.580Z,97854.05
2018-02-20T07:40:05.263Z,97849.10
2018-02-20T07:42:32.935Z,97854.30
2018-02-20T07:45:00.639Z,97856.48
2018-02-20T07:47:28.313Z,97854.22
2018-02-20T07:49:55.999Z,97856.45
2018-02-20T07:52:23.671Z,97856.02
2018-02-20T07:54:51.394Z,97857.00
2018-02-20T07:57:19.071Z,97863.42
2018-02-20T07:59:46.750Z,97866.80
2018-02-20T08:04:41.396Z,97864.94
2018-02-20T08:07:09.076Z,97856.81
2018-02-20T08:09:36.744Z,97862.75
2018-02-20T08:12:04.631Z,97864.20
2018-02-20T08:14:32.305Z,97868.86
2018-02-20T08:16:59.975Z,97862.84
2018-02-20T08:19:27.664Z,97858.47
2018-02-20T08:21:55.351Z,97864.38
2018-02-20T08:24:23.048Z,97866.06
2018-02-20T08:26:50.715Z,97876.09
2018-02-20T08:29:18.885Z,97881.27
2018-02-20T08:31:46.651Z,97880.23
2018-02-20T08:34:14.326Z,97880.02
2018-02-20T08:36:42.015Z,97869.05
2018-02-20T08:39:09.686Z,97882.98
2018-02-20T08:41:37.375Z,97882.91
2018-02-20T08:44:05.062Z,97873.56
2018-02-20T08:46:32.769Z,97875.93
2018-02-20T08:49:00.443Z,97880.48
2018-02-20T08:51:28.120Z,97876.78
2018-02-20T08:53:55.812Z,97876.37
2018-02-20T08:56:23.484Z,97880.48
2018-02-20T08:58:51.183Z,97879.86
2018-02-20T09:01:18.857Z,97872.78
2018-02-20T09:03:46.876Z,97875.75
2018-02-20T09:06:14.550Z,97877.28
2018-02-20T09:08:42.228Z,97874.49
2018-02-20T09:11:09.968Z,97874.58
2018-02-20T09:13:37.638Z,97870.94
2018-02-20T09:16:05.336Z,97869.70
2018-02-20T09:18:33.012Z,97870.02
2018-02-20T09:21:00.811Z,97867.87
2018-02-20T09:23:28.471Z,97859.58
2018-02-20T09:25:56.147Z,97867.16
2018-02-20T09:28:23.848Z,97871.73
2018-02-20T09:30:51.509Z,97870.00
2018-02-20T09:33:19.234Z,97867.53
2018-02-20T09:35:46.903Z,97865.93
2018-02-20T09:38:14.871Z,97861.97
2018-02-20T09:40:42.550Z,97864.46
2018-02-20T09:43:10.235Z,97857.48
2018-02-20T09:45:37.923Z,97852.20
2018-02-20T09:48:05.607Z,97856.19
2018-02-20T09:50:33.306Z,97862.05
2018-02-20T09:53:00.978Z,97860.72
2018-02-20T09:55:29.013Z,97858.47
2018-02-20T09:57:56.813Z,97861.12
2018-02-20T10:00:24.496Z,97854.30
2018-02-20T10:02:52.195Z,97859.56
2018-02-20T10:05:19.885Z,97853.54
2018-02-20T10:07:47.588Z,97864.98
2018-02-20T10:10:15.267Z,97862.50
2018-02-20T10:12:43.148Z,97864.16
2018-02-20T10:15:10.825Z,97862.27
2018-02-20T10:17:38.512Z,97862.13
2018-02-20T10:20:06.597Z,97859.91
2018-02-20T10:22:34.267Z,97859.12
2018-02-20T10:25:02.032Z,97858.43
2018-02-20T10:27:29.704Z,97856.91
2018-02-20T10:29:57.549Z,97855.28
2018-02-20T10:32:25.225Z,97851.45
2018-02-20T10:34:52.910Z,97858.31
2018-02-20T10:37:20.624Z,97858.65
2018-02-20T10:39:48.300Z,97859.58
2018-02-20T10:42:16.009Z,97856.41
2018-02-20T10:44:43.689Z,97849.95
2018-02-20T10:47:11.552Z,97854.80
2018-02-20T10:49:39.238Z,97852.66
2018-02-20T10:52:06.934Z,97851.95
2018-02-20T10:54:34.639Z,97844.14
2018-02-20T10:57:02.324Z,97849.98
2018-02-20T10:59:30.045Z,97847.38
2018-02-20T11:01:57.709Z,97851.37
2018-02-20T11:04:26.476Z,97850.70
2018-02-20T11:06:54.155Z,97843.97
2018-02-20T11:09:21.829Z,97841.80
2018-02-20T11:11:49.519Z,97834.88
2018-02-20T11:14:17.199Z,97835.27
2018-02-20T11:16:44.938Z,97831.39
2018-02-20T11:19:12.714Z,97829.23
2018-02-20T11:21:41.610Z,97818.55
2018-02-20T11:24:09.532Z,97821.00
2018-02-20T11:26:37.276Z,97814.59
2018-02-20T11:29:05.014Z,97815.98
2018-02-20T11:31:33.039Z,97816.74
2018-02-20T11:34:00.745Z,97819.22
2018-02-20T11:36:28.425Z,97812.46
2018-02-20T11:38:56.162Z,97816.27
2018-02-20T11:41:23.841Z,97817.20
2018-02-20T11:43:51.564Z,97816.52
2018-02-20T11:46:19.249Z,97815.93
2018-02-20T11:48:47.238Z,97814.83
2018-02-20T11:51:15.095Z,97816.34
2018-02-20T11:53:42.776Z,97810.88
2018-02-20T11:56:10.448Z,97815.52
2018-02-20T11:58:38.159Z,97815.53
2018-02-20T12:01:05.842Z,97811.23
2018-02-20T12:03:33.906Z,97816.70
2018-02-20T12:06:01.591Z,97816.31
2018-02-20T12:08:29.267Z,97820.72
2018-02-20T12:10:57.147Z,97820.44
2018-02-20T12:13:24.843Z,97822.14
2018-02-20T12:15:52.932Z,97814.50
2018-02-20T12:18:21.023Z,97814.78
2018-02-20T12:20:49.101Z,97817.90
2018-02-20T12:23:16.808Z,97813.23
2018-02-20T12:25:44.491Z,97817.36
2018-02-20T12:28:12.187Z,97817.96
2018-02-20T12:30:40.056Z,97811.38
2018-02-20T12:33:07.910Z,97816.43
2018-02-20T12:35:36.098Z,97817.23
2018-02-20T12:38:03.793Z,97818.61
2018-02-20T12:40:31.831Z,97822.16
2018-02-20T12:42:59.632Z,97826.67
2018-02-20T12:45:27.343Z,97821.23
2018-02-20T12:47:55.373Z,97824.14
2018-02-20T12:50:23.496Z,97819.83
2018-02-20T12:52:51.339Z,97819.81
2018-02-20T12:55:19.503Z,97819.42
2018-02-20T12:57:47.634Z,97820.95
2018-02-20T13:00:15.346Z,97824.77
2018-02-20T13:02:43.229Z,97832.27
2018-02-20T13:05:10.964Z,97826.50
2018-02-20T13:07:39.375Z,97828.22
2018-02-20T13:10:07.512Z,97828.72
2018-02-20T13:12:36.245Z,97826.59
2018-02-20T13:15:03.942Z,97830.20
2018-02-20T13:17:40.182Z,97827.34
2018-02-20T13:20:09.274Z,97829.52
2018-02-20T13:22:37.128Z,97829.42
2018-02-20T13:25:05.215Z,97830.31
2018-02-20T13:27:33.061Z,97829.70
2018-02-20T13:30:00.915Z,97834.21
2018-02-20T13:32:28.651Z,97826.33
2018-02-20T13:34:56.323Z,97832.62
2018-02-20T13:37:24.042Z,97828.92
2018-02-20T13:39:51.742Z,97833.36
2018-02-20T13:42:19.457Z,97835.21
2018-02-20T13:44:47.356Z,97841.77
2018-02-20T13:47:15.406Z,97835.48
2018-02-20T13:49:43.676Z,97836.07
2018-02-20T13:52:12.064Z,97834.39
2018-02-20T13:54:39.776Z,97837.19
2018-02-20T13:57:07.894Z,97839.28
2018-02-20T13:59:35.595Z,97829.86
2018-02-20T14:02:03.317Z,97829.52
2018-02-20T14:04:30.983Z,97823.55
2018-02-20T14:06:58.705Z,97831.17
2018-02-20T14:09:26.435Z,97832.94
2018-02-20T14:11:54.141Z,97835.64
2018-02-20T14:14:21.852Z,97836.30
2018-02-20T14:16:49.536Z,97835.98
2018-02-20T14:19:17.491Z,97835.83
2018-02-20T14:21:45.558Z,97835.34
2018-02-20T14:24:13.493Z,97829.97
2018-02-20T14:26:41.181Z,97836.44
2018-02-20T14:29:08.878Z,97835.24
2018-02-20T14:31:36.803Z,97838.50
2018-02-20T14:34:04.525Z,97832.81
2018-02-20T14:36:32.229Z,97831.73
2018-02-20T14:38:59.901Z,97830.59
2018-02-20T14:41:27.638Z,97831.55
2018-02-20T14:43:55.370Z,97842.57
2018-02-20T14:46:23.084Z,97832.62
2018-02-20T14:48:50.964Z,97837.73
2018-02-20T14:51:18.834Z,97838.25
2018-02-20T14:53:46.776Z,97842.49
2018-02-20T14:56:14.465Z,97845.68
2018-02-20T14:58:42.311Z,97843.84
2018-02-20T15:01:10.274Z,97843.03
2018-02-20T15:03:38.099Z,97847.66
2018-02-20T15:06:05.790Z,97850.68
2018-02-20T15:08:33.460Z,97852.13
2018-02-20T15:11:01.186Z,97853.64
2018-02-20T15:13:28.874Z,97854.46
2018-02-20T15:15:56.766Z,97845.00
2018-02-20T15:18:24.648Z,97853.39
2018-02-20T15:20:52.639Z,97855.71
2018-02-20T15:23:20.686Z,97851.71
2018-02-20T15:25:48.368Z,97861.53
2018-02-20T15:28:16.068Z,97854.61
2018-02-20T15:30:43.745Z,97858.13
2018-02-20T15:33:11.625Z,97858.03
2018-02-20T15:35:39.298Z,97858.91
2018-02-20T15:38:06.973Z,97863.26
2018-02-20T15:40:34.669Z,97863.20
2018-02-20T15:43:02.348Z,97868.22
2018-02-20T15:45:30.050Z,97863.92
2018-02-20T15:47:57.726Z,97873.82
2018-02-20T15:51:30.206Z,97877.03
2018-02-20T15:53:57.888Z,97875.47
2018-02-20T15:56:25.598Z,97880.47
2018-02-20T15:58:53.489Z,97883.36
2018-02-20T16:01:21.241Z,97880.07
2018-02-20T16:03:48.934Z,97884.59
2018-02-20T16:06:16.628Z,97886.17
2018-02-20T16:08:44.324Z,97885.64
2018-02-20T16:11:12.016Z,97880.05
2018-02-20T16:16:12.030Z,97894.11
2018-02-20T16:18:42.474Z,97892.31
2018-02-20T16:21:10.404Z,97897.87
2018-02-20T16:23:38.317Z,97896.22
2018-02-20T16:26:06.111Z,97893.52
2018-02-20T16:28:34.072Z,97898.67
2018-02-20T16:31:01.986Z,97892.91
2018-02-20T16:33:29.668Z,97897.80
2018-02-20T16:35:57.347Z,97900.27
2018-02-20T16:38:25.044Z,97905.44
2018-02-20T16:40:52.726Z,97897.41
2018-02-20T16:43:20.819Z,97913.00
2018-02-20T16:45:48.508Z,97902.09
2018-02-20T16:48:16.183Z,97914.05
2018-02-20T16:50:44.083Z,97911.26
2018-02-20T16:53:12.285Z,97915.77
2018-02-20T16:55:39.982Z,97914.88
2018-02-20T16:58:07.660Z,97926.97
2018-02-20T17:00:35.432Z,97933.55
2018-02-20T17:03:03.110Z,97934.29
2018-02-20T17:05:31.096Z,97938.12
2018-02-20T17:07:58.797Z,97938.03
2018-02-20T17:10:26.467Z,97938.25
2018-02-20T17:12:54.260Z,97945.02
2018-02-20T17:15:21.933Z,97946.48
2018-02-20T17:17:49.637Z,97950.61
2018-02-20T17:20:17.616Z,97947.25
2018-02-20T17:22:45.555Z,97953.25
2018-02-20T17:25:13.516Z,97948.24
2018-02-20T17:27:41.185Z,97954.53
2018-02-20T17:30:08.893Z,97953.28
2018-02-20T17:32:36.583Z,97962.56
2018-02-20T17:35:04.328Z,97958.06
2018-02-20T17:37:32.009Z,97964.48
2018-02-20T17:39:59.747Z,97962.83
2018-02-20T17:42:27.484Z,97958.50
2018-02-20T17:44:55.148Z,97961.42
2018-02-20T17:47:22.835Z,97954.58
2018-02-20T17:49:50.895Z,97959.89
2018-02-20T17:52:19.174Z,97964.72
2018-02-20T17:54:46.848Z,97971.41
2018-02-20T17:57:14.588Z,97973.45
2018-02-20T17:59:42.293Z,97976.52
2018-02-20T18:02:09.974Z,97975.63
2018-02-20T18:04:37.671Z,97982.47
2018-02-20T18:07:05.348Z,97985.14
2018-02-20T18:09:33.188Z,97984.97
2018-02-20T18:12:00.859Z,97983.93
2018-02-20T18:14:28.530Z,97988.59
2018-02-20T18:16:56.241Z,97991.66
2018-02-20T18:19:24.196Z,97991.51
2018-02-20T18:21:52.354Z,98001.18
2018-02-20T18:24:20.026Z,98002.20
2018-02-20T18:26:47.759Z,97993.31
2018-02-20T18:29:15.429Z,98003.52
2018-02-20T18:31:43.111Z,97997.84
2018-02-20T18:34:13.737Z,98001.88
2018-02-20T18:36:41.685Z,98000.86
2018-02-20T18:39:09.393Z,98003.33
2018-02-20T18:41:37.080Z,98001.84
2018-02-20T18:44:04.788Z,98001.70
2018-02-20T18:46:32.543Z,98004.43
2018-02-20T18:49:00.255Z,98010.41
2018-02-20T18:51:27.953Z,98008.58
2018-02-20T18:53:55.636Z,98014.77
2018-02-20T18:56:23.340Z,98018.48
2018-02-20T18:58:51.023Z,98016.63
2018-02-20T19:01:18.955Z,98013.98
2018-02-20T19:03:46.652Z,98017.80
2018-02-20T19:06:14.332Z,98019.06
2018-02-20T19:08:42.039Z,98014.95
2018-02-20T19:11:09.712Z,98018.78
2018-02-20T19:13:37.406Z,98026.51
2018-02-20T19:16:05.084Z,98021.13
2018-02-20T19:18:32.806Z,98024.13
2018-02-20T19:21:00.497Z,98027.67
2018-02-20T19:23:28.182Z,98022.27
2018-02-20T19:25:55.894Z,98028.70
2018-02-20T19:28:23.564Z,98025.27
2018-02-20T19:30:51.269Z,98027.50
2018-02-20T19:33:18.957Z,98029.61
2018-02-20T19:35:47.113Z,98033.14
2018-02-20T19:38:14.921Z,98031.58
2018-02-20T19:40:42.665Z,98030.70
2018-02-20T19:43:10.387Z,98028.23
2018-02-20T19:45:38.121Z,98028.08
2018-02-20T19:48:05.855Z,98031.25
2018-02-20T19:50:33.606Z,98033.50
2018-02-20T19:53:01.686Z,98031.97
2018-02-20T19:55:29.380Z,98035.36
2018-02-20T19:57:57.158Z,98031.06
2018-02-20T20:00:24.891Z,98032.41
2018-02-20T20:02:52.580Z,98032.46
2018-02-20T20:05:20.329Z,98030.49
2018-02-20T20:07:48.020Z,98028.88
2018-02-20T20:10:15.853Z,98030.85
2018-02-20T20:12:43.574Z,98028.80
2018-02-20T20:15:11.272Z,98035.40
2018-02-20T20:17:39.085Z,98032.11
2018-02-20T20:20:06.762Z,98032.30
2018-02-20T20:22:34.458Z,98028.55
2018-02-20T20:25:02.139Z,98031.94
2018-02-20T20:27:29.880Z,98029.69
2018-02-20T20:29:57.643Z,98036.30
2018-02-20T20:32:25.592Z,98040.02
2018-02-20T20:34:53.283Z,98033.86
2018-02-20T20:37:20.984Z,98036.20
2018-02-20T20:39:48.748Z,98042.66
2018-02-20T20:42:16.574Z,98037.20
2018-02-20T20:44:44.282Z,98044.21
2018-02-20T20:47:11.949Z,98046.95
2018-02-20T20:49:39.650Z,98050.64
2018-02-20T20:52:07.356Z,98043.03
2018-02-20T20:54:35.071Z,98044.41
2018-02-20T20:57:02.739Z,98045.97
2018-02-20T20:59:30.412Z,98050.48
2018-02-20T21:01:58.104Z,98044.13
2018-02-20T21:04:25.851Z,98045.91
2018-02-20T21:06:53.587Z,98041.01
2018-02-20T21:09:21.312Z,98042.05
2018-02-20T21:11:49.245Z,98048.75
2018-02-20T21:14:16.945Z,98046.78
2018-02-20T21:16:44.641Z,98046.73
2018-02-20T21:19:12.398Z,98047.94
2018-02-20T21:21:40.107Z,98052.95
2018-02-20T21:24:07.848Z,98045.34
2018-02-20T21:26:35.540Z,98057.69
2018-02-20T21:29:03.264Z,98056.14
2018-02-20T21:31:30.962Z,98063.53
2018-02-20T21:33:58.636Z,98057.78
2018-02-20T21:36:26.346Z,98052.72
2018-02-20T21:38:54.020Z,98051.28
2018-02-20T21:41:21.724Z,98053.20
2018-02-20T21:43:49.419Z,98054.33
2018-02-20T21:46:17.115Z,98070.99
2018-02-20T21:48:44.839Z,98065.13
2018-02-20T21:51:12.567Z,98062.87
2018-02-20T21:53:40.273Z,98058.37
2018-02-20T21:56:07.972Z,98062.61
2018-02-20T21:58:35.690Z,98063.03
2018-02-20T22:01:03.361Z,98057.68
2018-02-20T22:03:31.163Z,98063.44
2018-02-20T22:05:58.856Z,98065.55
2018-02-20T22:08:26.556Z,98069.38
2018-02-20T22:10:54.265Z,98061.14
2018-02-20T22:13:21.932Z,98065.44
2018-02-20T22:15:49.634Z,98066.52
2018-02-20T22:18:17.344Z,98066.39
2018-02-20T22:20:45.204Z,98064.20
2018-02-20T22:23:12.892Z,98070.55
2018-02-20T22:25:40.580Z,98072.34
2018-02-20T22:28:08.276Z,98073.66
2018-02-20T22:30:35.952Z,98077.63
2018-02-20T22:33:03.668Z,98077.12
2018-02-20T22:35:31.354Z,98078.99
2018-02-20T22:37:59.032Z,98083.75
2018-02-20T22:40:26.756Z,98082.89
2018-02-20T22:42:54.424Z,98082.14
2018-02-20T22:45:22.149Z,98077.63
2018-02-20T22:47:49.835Z,98077.12
2018-02-20T22:50:17.525Z,98084.05
2018-02-20T22:52:45.262Z,98084.97
2018-02-20T22:55:12.941Z,98082.14
2018-02-20T22:57:40.668Z,98088.87
2018-02-20T23:00:08.334Z,98089.89
2018-02-20T23:02:36.028Z,98082.32
2018-02-20T23:05:03.716Z,98084.99
2018-02-20T23:07:31.482Z,98083.80
2018-02-20T23:09:59.189Z,98086.73
2018-02-20T23:12:26.885Z,98088.02
2018-02-20T23:14:54.577Z,98082.17
2018-02-20T23:17:22.263Z,98085.52
2018-02-20T23:19:50.149Z,98087.69
2018-02-20T23:22:17.828Z,98089.67
2018-02-20T23:24:45.524Z,98089.38
2018-02-20T23:27:13.231Z,98093.66
2018-02-20T23:29:40.910Z,98101.44
2018-02-20T23:32:08.618Z,98101.06
2018-02-20T23:34:36.298Z,98104.27
2018-02-20T23:37:04.151Z,98103.70
2018-02-20T23:39:31.854Z,98097.06
2018-02-20T23:41:59.543Z,98103.86
2018-02-20T23:44:27.263Z,98100.00
2018-02-20T23:46:54.931Z,98103.86
2018-02-20T23:49:22.677Z,98102.08
2018-02-20T23:51:50.370Z,98099.58
2018-02-20T23:54:18.068Z,98102.52
2018-02-20T23:56:45.758Z,98110.77
2018-02-20T23:59:13.650Z,98112.13
